Time;durP1;ratioP1;P1;durP2;ratioP2;P2;SDS_P1;SDS_P2;PMS_P1;PMS_P2;Temp;Humidity;BMP_temperature;BMP_pressure;BME280_temperature;BME280_humidity;BME280_pressure;Samples;Min_cycle;Max_cycle;Signal;HPM_P1;HPM_P2
2022/04/25 00:00:08;;;;;;;11.80;11.40;;;8.50;99.90;;;;;;5122194;28;20240;-82
2022/04/25 00:02:35;;;;;;;11.90;11.50;;;8.40;99.90;;;;;;5121442;28;20229;-81
2022/04/25 00:05:05;;;;;;;11.90;11.50;;;8.40;99.90;;;;;;5121596;28;20312;-81
2022/04/25 00:07:33;;;;;;;12.03;11.63;;;8.40;99.90;;;;;;5123447;28;20225;-81
2022/04/25 00:10:01;;;;;;;11.90;11.50;;;8.30;99.90;;;;;;5122160;28;20232;-81
2022/04/25 00:12:29;;;;;;;11.73;11.33;;;8.30;99.90;;;;;;5122238;28;20301;-81
2022/04/25 00:14:57;;;;;;;11.73;11.33;;;8.20;99.90;;;;;;5121890;28;20327;-82
2022/04/25 00:17:24;;;;;;;11.53;11.13;;;8.20;99.90;;;;;;5121732;28;20225;-81
2022/04/25 00:19:52;;;;;;;11.73;11.33;;;8.20;99.90;;;;;;5121012;28;20221;-81
2022/04/25 00:22:21;;;;;;;11.63;11.23;;;8.20;99.90;;;;;;5129415;27;20221;-81
2022/04/25 00:24:50;;;;;;;11.77;11.37;;;8.20;99.90;;;;;;5127754;28;20224;-81
2022/04/25 00:27:18;;;;;;;11.70;11.30;;;8.20;99.90;;;;;;5123973;28;20213;-81
2022/04/25 00:29:45;;;;;;;11.53;11.13;;;8.20;99.90;;;;;;5122994;27;20309;-81
2022/04/25 00:32:13;;;;;;;11.80;11.40;;;8.20;99.90;;;;;;5122892;28;20228;-81
2022/04/25 00:34:41;;;;;;;11.80;11.40;;;8.30;99.90;;;;;;5122099;28;20236;-81
2022/04/25 00:37:08;;;;;;;12.10;11.70;;;8.20;99.90;;;;;;5122420;28;20229;-81
2022/04/25 00:39:37;;;;;;;11.80;11.40;;;8.30;99.90;;;;;;5121415;27;20316;-82
2022/04/25 00:42:06;;;;;;;11.80;11.40;;;8.20;99.90;;;;;;5124554;28;20228;-81
2022/04/25 00:44:34;;;;;;;11.73;11.33;;;8.30;99.90;;;;;;5123091;28;20231;-81
2022/04/25 00:47:02;;;;;;;11.70;11.30;;;8.30;99.90;;;;;;5122217;27;20731;-79
2022/04/25 00:49:29;;;;;;;11.87;11.47;;;8.30;99.90;;;;;;5122488;28;20268;-80
2022/04/25 00:51:57;;;;;;;11.83;11.43;;;8.30;99.90;;;;;;5121606;28;20263;-79
2022/04/25 00:54:25;;;;;;;11.80;11.40;;;8.20;99.90;;;;;;5135938;27;20209;-80
2022/04/25 00:56:54;;;;;;;11.87;11.47;;;8.10;99.90;;;;;;5142209;27;20201;-79
2022/04/25 00:59:24;;;;;;;12.00;11.60;;;8.00;99.90;;;;;;5141721;27;20225;-79
2022/04/25 01:01:52;;;;;;;11.87;11.47;;;8.00;99.90;;;;;;5140571;27;20213;-79
2022/04/25 01:04:21;;;;;;;11.83;11.43;;;8.00;99.90;;;;;;5140269;27;20251;-80
2022/04/25 01:06:49;;;;;;;11.80;11.40;;;8.00;99.90;;;;;;5134779;28;20311;-80
2022/04/25 01:09:17;;;;;;;11.70;11.30;;;8.00;99.90;;;;;;5126420;28;20239;-81
2022/04/25 01:11:44;;;;;;;11.70;11.30;;;8.00;99.90;;;;;;5125374;28;20240;-81
2022/04/25 01:14:20;;;;;;;11.70;11.30;;;8.00;99.90;;;;;;5122282;28;20225;-81
2022/04/25 01:16:49;;;;;;;11.70;11.30;;;8.00;99.90;;;;;;5120835;28;20232;-81
2022/04/25 01:19:17;;;;;;;11.77;11.37;;;7.90;99.90;;;;;;5120314;28;20323;-80
2022/04/25 01:21:50;;;;;;;11.77;11.37;;;7.90;99.90;;;;;;5121468;28;20243;-81
2022/04/25 01:27:19;;;;;;;11.57;11.17;;;7.90;99.90;;;;;;5121502;28;20217;-80
2022/04/25 01:29:49;;;;;;;11.90;11.50;;;7.80;99.90;;;;;;5122979;27;20236;-82
2022/04/25 01:32:18;;;;;;;11.90;11.50;;;7.80;99.90;;;;;;5122324;28;20235;-81
2022/04/25 01:34:46;;;;;;;11.57;11.17;;;7.80;99.90;;;;;;5122107;28;20232;-81
2022/04/25 01:37:15;;;;;;;11.73;11.33;;;7.80;99.90;;;;;;5120590;27;20232;-81
2022/04/25 01:39:46;;;;;;;11.50;11.10;;;7.80;99.90;;;;;;5121021;28;20298;-82
2022/04/25 01:42:15;;;;;;;11.90;11.50;;;7.80;99.90;;;;;;5120605;28;20251;-81
2022/04/25 01:44:43;;;;;;;12.00;11.60;;;7.80;99.90;;;;;;5121252;28;20295;-81
2022/04/25 01:47:11;;;;;;;11.80;11.40;;;7.80;99.90;;;;;;5121186;27;20225;-81
2022/04/25 01:49:39;;;;;;;11.77;11.37;;;7.80;99.90;;;;;;5121069;28;20235;-80
2022/04/25 01:52:12;;;;;;;11.90;11.50;;;7.80;99.90;;;;;;5121237;28;20278;-82
2022/04/25 01:54:40;;;;;;;11.67;11.27;;;7.80;99.90;;;;;;5120851;27;20221;-80
2022/04/25 01:57:09;;;;;;;11.53;11.13;;;7.70;99.90;;;;;;5120056;28;20239;-80
2022/04/25 01:59:37;;;;;;;11.50;11.10;;;7.70;99.90;;;;;;5120171;28;20282;-82
2022/04/25 02:02:05;;;;;;;11.60;11.20;;;7.70;99.90;;;;;;5120984;28;20740;-81
2022/04/25 02:04:33;;;;;;;11.70;11.30;;;7.70;99.90;;;;;;5129499;28;20244;-80
2022/04/25 02:07:00;;;;;;;11.57;11.17;;;7.80;99.90;;;;;;5133731;27;20228;-80
2022/04/25 02:09:30;;;;;;;11.60;11.20;;;7.80;99.90;;;;;;5131311;28;20225;-80
2022/04/25 02:11:57;;;;;;;11.87;11.47;;;7.70;99.90;;;;;;5135282;27;20209;-81
2022/04/25 02:14:29;;;;;;;11.47;11.07;;;7.80;99.90;;;;;;5129438;28;20250;-80
2022/04/25 02:16:59;;;;;;;11.70;11.30;;;7.70;99.90;;;;;;5128931;28;20233;-81
2022/04/25 02:19:30;;;;;;;11.90;11.50;;;7.70;99.90;;;;;;5127706;27;20231;-80
2022/04/25 02:21:58;;;;;;;11.70;11.30;;;7.70;99.90;;;;;;5124859;28;20232;-80
2022/04/25 02:24:25;;;;;;;11.83;11.43;;;7.70;99.90;;;;;;5122610;28;20239;-80
2022/04/25 02:26:53;;;;;;;11.60;11.20;;;7.60;99.90;;;;;;5122599;28;20229;-80
2022/04/25 02:29:22;;;;;;;11.70;11.30;;;7.60;99.90;;;;;;5121792;28;20256;-80
2022/04/25 02:31:51;;;;;;;11.70;11.30;;;7.60;99.90;;;;;;5121226;28;20239;-80
2022/04/25 02:34:19;;;;;;;11.53;11.13;;;7.60;99.90;;;;;;5121659;28;20229;-80
2022/04/25 02:36:46;;;;;;;11.80;11.40;;;7.60;99.90;;;;;;5119906;28;20224;-80
2022/04/25 02:39:14;;;;;;;11.90;11.50;;;7.60;99.90;;;;;;5122301;28;20232;-81
2022/04/25 02:41:42;;;;;;;11.60;11.20;;;7.60;99.90;;;;;;5120946;28;20236;-80
2022/04/25 02:44:09;;;;;;;11.57;11.17;;;7.60;99.90;;;;;;5120216;28;20232;-81
2022/04/25 02:46:37;;;;;;;11.77;11.37;;;7.60;99.90;;;;;;5120593;27;20264;-80
2022/04/25 02:49:06;;;;;;;11.53;11.13;;;7.60;99.90;;;;;;5120736;27;20228;-80
2022/04/25 02:51:34;;;;;;;11.70;11.30;;;7.50;99.90;;;;;;5120166;28;20632;-80
2022/04/25 02:54:02;;;;;;;11.90;11.50;;;7.50;99.90;;;;;;5120714;28;20225;-80
2022/04/25 02:56:29;;;;;;;11.63;11.23;;;7.50;99.90;;;;;;5120863;28;20220;-80
2022/04/25 02:58:57;;;;;;;11.70;11.30;;;7.50;99.90;;;;;;5120662;28;20229;-80
2022/04/25 03:01:25;;;;;;;11.50;11.10;;;7.50;99.90;;;;;;5120667;28;20799;-80
2022/04/25 03:03:52;;;;;;;11.60;11.20;;;7.50;99.90;;;;;;5120035;28;20224;-80
2022/04/25 03:06:21;;;;;;;11.53;11.13;;;7.40;99.90;;;;;;5119313;28;20282;-80
2022/04/25 03:08:49;;;;;;;11.60;11.20;;;7.50;99.90;;;;;;5120227;28;20225;-79
2022/04/25 03:11:17;;;;;;;11.67;11.27;;;7.50;99.90;;;;;;5119568;27;20236;-80
2022/04/25 03:13:45;;;;;;;11.60;11.20;;;7.50;99.90;;;;;;5120315;28;20233;-80
2022/04/25 03:16:13;;;;;;;11.47;11.07;;;7.50;99.90;;;;;;5119621;28;20217;-80
2022/04/25 03:18:40;;;;;;;11.53;11.13;;;7.50;99.90;;;;;;5120035;28;20225;-80
2022/04/25 03:21:08;;;;;;;11.40;11.00;;;7.50;99.90;;;;;;5127618;28;20233;-80
2022/04/25 03:23:38;;;;;;;11.37;10.97;;;7.50;99.90;;;;;;5127562;28;20280;-80
2022/04/25 03:26:07;;;;;;;11.33;10.93;;;7.60;99.90;;;;;;5122573;27;20212;-79
2022/04/25 03:28:35;;;;;;;11.27;10.87;;;7.60;99.90;;;;;;5123811;28;20289;-80
2022/04/25 03:31:07;;;;;;;11.40;11.00;;;7.60;99.90;;;;;;5123741;28;20236;-80
2022/04/25 03:33:35;;;;;;;11.33;10.93;;;7.70;99.90;;;;;;5123763;28;20243;-81
2022/04/25 03:36:04;;;;;;;11.37;10.97;;;7.60;99.90;;;;;;5122514;28;20224;-80
2022/04/25 03:38:31;;;;;;;11.20;10.80;;;7.60;99.90;;;;;;5122836;28;20228;-80
2022/04/25 03:41:01;;;;;;;11.07;10.67;;;7.70;99.90;;;;;;5121548;28;20232;-80
2022/04/25 03:43:31;;;;;;;11.10;10.70;;;7.70;99.90;;;;;;5121198;27;20240;-80
2022/04/25 03:45:59;;;;;;;11.20;10.80;;;7.70;99.90;;;;;;5122171;27;20317;-80
2022/04/25 03:48:27;;;;;;;11.10;10.70;;;7.80;99.90;;;;;;5122454;28;20228;-80
2022/04/25 03:50:54;;;;;;;11.23;10.83;;;7.80;99.90;;;;;;5131684;27;20228;-81
2022/04/25 03:53:22;;;;;;;10.97;10.63;;;7.80;99.90;;;;;;5141300;27;20253;-80
2022/04/25 03:58:36;;;;;;;11.33;10.93;;;7.80;99.90;;;;;;5125964;28;20228;-80
2022/04/25 04:01:04;;;;;;;11.70;11.30;;;7.80;99.90;;;;;;5124735;28;20248;-80
2022/04/25 04:03:35;;;;;;;11.60;11.20;;;7.80;99.90;;;;;;5124511;28;20232;-81
2022/04/25 04:06:04;;;;;;;12.07;11.67;;;7.70;99.90;;;;;;5123288;28;20221;-80
2022/04/25 04:08:32;;;;;;;11.80;11.40;;;7.70;99.90;;;;;;5129183;28;20306;-81
2022/04/25 04:10:59;;;;;;;11.80;11.40;;;7.70;99.90;;;;;;5131253;27;20237;-80
2022/04/25 04:13:27;;;;;;;12.00;11.60;;;7.70;99.90;;;;;;5126449;28;20220;-80
2022/04/25 04:15:56;;;;;;;12.17;11.77;;;7.60;99.90;;;;;;5124917;28;20233;-80
2022/04/25 04:18:24;;;;;;;11.53;11.13;;;7.70;99.90;;;;;;5124785;28;20229;-80
2022/04/25 04:20:52;;;;;;;11.93;11.53;;;7.80;99.90;;;;;;5123315;28;20240;-80
2022/04/25 04:23:19;;;;;;;11.77;11.37;;;7.90;99.90;;;;;;5122610;28;20236;-82
2022/04/25 04:25:47;;;;;;;11.83;11.43;;;7.90;99.90;;;;;;5121785;28;20232;-80
2022/04/25 04:28:15;;;;;;;11.70;11.30;;;7.90;99.90;;;;;;5121568;28;20229;-81
2022/04/25 04:30:43;;;;;;;11.63;11.23;;;8.00;99.90;;;;;;5122234;28;20233;-81
2022/04/25 04:33:13;;;;;;;11.83;11.43;;;8.00;99.90;;;;;;5124996;28;20229;-80
2022/04/25 04:38:25;;;;;;;12.00;11.60;;;8.10;99.90;;;;;;5122587;27;20204;-80
2022/04/25 04:40:53;;;;;;;11.63;11.23;;;8.10;99.90;;;;;;5160123;22;20227;-80
2022/04/25 04:43:20;;;;;;;11.40;11.00;;;8.00;99.90;;;;;;5168394;27;20284;-82
2022/04/25 04:48:39;;;;;;;11.60;11.20;;;7.90;99.90;;;;;;5151709;27;20240;-83
2022/04/25 04:51:33;;;;;;;11.83;11.43;;;7.90;99.90;;;;;;5159234;27;20227;-80
2022/04/25 04:54:02;;;;;;;11.70;11.30;;;7.90;99.90;;;;;;5167367;27;20224;-81
2022/04/25 04:56:42;;;;;;;11.67;11.27;;;8.00;99.90;;;;;;5166738;27;20212;-80
2022/04/25 05:06:05;;;;;;;12.17;11.77;;;8.00;99.90;;;;;;5139927;27;20230;-81
2022/04/25 05:08:43;;;;;;;12.07;11.67;;;8.10;99.90;;;;;;5145641;27;20229;-81
2022/04/25 05:11:11;;;;;;;11.80;11.40;;;8.10;99.90;;;;;;5144621;27;20232;-81
2022/04/25 05:16:20;;;;;;;12.40;12.00;;;8.10;99.90;;;;;;5144120;27;20407;-81
2022/04/25 05:18:48;;;;;;;11.60;11.20;;;8.10;99.90;;;;;;5153043;27;20237;-82
2022/04/25 05:22:10;;;;;;;12.07;11.67;;;8.30;99.90;;;;;;5165604;27;20232;-82
2022/04/25 05:24:49;;;;;;;11.97;11.57;;;8.40;99.90;;;;;;5165907;27;20245;-82
2022/04/25 05:27:18;;;;;;;12.03;11.63;;;8.40;99.90;;;;;;5166599;27;20250;-82
2022/04/25 05:29:47;;;;;;;12.00;11.60;;;8.40;99.90;;;;;;5165785;27;20231;-84
2022/04/25 05:32:15;;;;;;;11.90;11.50;;;8.40;99.90;;;;;;5163617;27;20237;-84
2022/04/25 05:34:43;;;;;;;12.20;11.80;;;8.40;99.90;;;;;;5168359;27;20222;-83
2022/04/25 05:37:10;;;;;;;11.83;11.43;;;8.40;99.90;;;;;;5161700;27;20648;-83
2022/04/25 05:39:40;;;;;;;11.93;11.53;;;8.40;99.90;;;;;;5171999;27;20233;-82
2022/04/25 05:42:08;;;;;;;11.53;11.13;;;8.40;99.90;;;;;;5172225;27;20236;-81
2022/04/25 05:44:36;;;;;;;12.10;11.70;;;8.40;99.90;;;;;;5164491;27;20282;-83
2022/04/25 05:47:04;;;;;;;12.20;11.80;;;8.40;99.90;;;;;;5166038;27;20249;-82
2022/04/25 05:52:17;;;;;;;12.17;11.77;;;8.40;99.90;;;;;;5167302;27;20238;-82
2022/04/25 05:54:46;;;;;;;11.70;11.30;;;8.40;99.90;;;;;;5163891;27;20256;-79
2022/04/25 05:57:14;;;;;;;11.60;11.20;;;8.40;99.90;;;;;;5171396;27;20231;-81
2022/04/25 05:59:42;;;;;;;11.80;11.40;;;8.50;99.90;;;;;;5173227;27;20245;-82
2022/04/25 06:02:09;;;;;;;11.90;11.50;;;8.50;99.90;;;;;;5168184;27;20299;-82
2022/04/25 06:04:37;;;;;;;11.67;11.27;;;8.50;99.90;;;;;;5164471;27;20245;-82
2022/04/25 06:07:06;;;;;;;11.80;11.40;;;8.50;99.90;;;;;;5162136;27;20231;-82
2022/04/25 06:09:34;;;;;;;11.57;11.17;;;8.50;99.90;;;;;;5162417;27;20227;-82
2022/04/25 06:12:04;;;;;;;11.60;11.20;;;8.60;99.90;;;;;;5161565;27;20256;-82
2022/04/25 06:14:34;;;;;;;11.50;11.10;;;8.50;99.90;;;;;;5163367;27;20273;-83
2022/04/25 06:17:02;;;;;;;11.77;11.37;;;8.60;99.90;;;;;;5163259;27;20234;-82
2022/04/25 06:19:30;;;;;;;12.03;11.63;;;8.60;99.90;;;;;;5164446;27;20728;-82
2022/04/25 06:21:58;;;;;;;11.87;11.47;;;8.60;99.90;;;;;;5163105;27;20239;-82
2022/04/25 06:24:26;;;;;;;11.93;11.53;;;8.50;99.90;;;;;;5162388;27;20279;-82
2022/04/25 06:26:55;;;;;;;11.73;11.33;;;8.50;99.90;;;;;;5161398;27;20223;-82
2022/04/25 06:29:25;;;;;;;11.90;11.50;;;8.50;99.90;;;;;;5162221;27;20249;-82
2022/04/25 06:31:53;;;;;;;11.83;11.43;;;8.60;99.90;;;;;;5161584;27;20276;-82
2022/04/25 06:34:21;;;;;;;11.50;11.10;;;8.50;99.90;;;;;;5162911;27;20230;-84
2022/04/25 06:36:50;;;;;;;11.70;11.30;;;8.60;99.90;;;;;;5163089;27;20226;-84
2022/04/25 06:39:18;;;;;;;11.50;11.10;;;8.70;99.90;;;;;;5164097;27;20258;-84
2022/04/25 06:41:49;;;;;;;11.40;11.00;;;8.80;99.90;;;;;;5161878;27;20265;-83
2022/04/25 06:44:20;;;;;;;11.50;11.10;;;8.80;99.90;;;;;;5160842;27;20233;-83
2022/04/25 06:46:50;;;;;;;11.30;10.90;;;8.90;99.90;;;;;;5162854;27;20242;-84
2022/04/25 06:49:23;;;;;;;11.10;10.80;;;9.10;99.90;;;;;;5162998;27;20285;-83
2022/04/25 06:51:52;;;;;;;11.30;10.90;;;9.10;99.90;;;;;;5165770;27;20322;-83
2022/04/25 06:54:21;;;;;;;11.50;11.10;;;9.10;99.90;;;;;;5166228;27;20317;-84
2022/04/25 06:56:50;;;;;;;11.20;10.90;;;9.10;99.90;;;;;;5165410;27;20222;-83
2022/04/25 06:59:19;;;;;;;11.00;10.70;;;9.10;99.90;;;;;;5163818;27;20270;-83
2022/04/25 07:01:48;;;;;;;11.27;10.93;;;9.20;99.90;;;;;;5166615;27;20330;-84
2022/04/25 07:04:27;;;;;;;11.20;10.90;;;9.30;99.90;;;;;;5167842;27;20231;-84
2022/04/25 07:06:57;;;;;;;11.23;10.90;;;9.40;99.90;;;;;;5167783;27;20309;-84
2022/04/25 07:12:11;;;;;;;11.03;10.73;;;9.40;99.90;;;;;;5166454;27;20318;-83
2022/04/25 07:17:26;;;;;;;11.10;10.80;;;9.40;99.90;;;;;;5168262;27;20211;-82
2022/04/25 07:20:00;;;;;;;11.47;11.07;;;9.40;99.90;;;;;;5167720;27;20227;-82
2022/04/25 07:30:44;;;;;;;11.30;11.00;;;9.80;99.90;;;;;;5168699;27;20271;-85
2022/04/25 07:33:12;;;;;;;10.50;10.20;;;10.00;99.90;;;;;;5168560;27;20219;-85
2022/04/25 07:35:49;;;;;;;10.13;9.83;;;10.20;99.90;;;;;;5168145;27;20232;-85
2022/04/25 07:41:08;;;;;;;10.70;10.40;;;10.30;99.90;;;;;;5167374;27;20223;-89
2022/04/25 07:43:44;;;;;;;10.70;10.40;;;10.60;99.90;;;;;;5179595;27;20226;-89
2022/04/25 07:46:23;;;;;;;10.17;9.87;;;10.70;99.90;;;;;;5185516;27;20269;-88
2022/04/25 07:49:01;;;;;;;10.60;10.30;;;10.80;99.90;;;;;;5185146;27;20203;-89
2022/04/25 07:51:40;;;;;;;10.53;10.23;;;11.00;99.90;;;;;;5184473;27;20223;-86
2022/04/25 07:54:08;;;;;;;10.23;9.93;;;11.00;99.90;;;;;;5172469;27;20228;-87
2022/04/25 07:56:39;;;;;;;10.20;9.90;;;10.90;99.90;;;;;;5178288;27;20235;-84
2022/04/25 07:59:09;;;;;;;10.47;10.17;;;10.70;99.90;;;;;;5182323;27;20336;-85
2022/04/25 08:01:45;;;;;;;10.30;10.00;;;10.80;99.90;;;;;;5176871;27;20219;-86
2022/04/25 08:04:15;;;;;;;10.33;10.03;;;10.70;99.90;;;;;;5178192;27;20290;-86
2022/04/25 08:06:56;;;;;;;10.27;9.97;;;10.80;99.90;;;;;;5182035;27;20235;-86
2022/04/25 08:09:24;;;;;;;10.50;10.20;;;10.80;99.90;;;;;;5184048;27;20208;-85
2022/04/25 08:27:00;;;;;;;10.40;10.10;;;10.60;99.90;;;;;;5117701;27;20323;-84
2022/04/25 08:29:28;;;;;;;10.53;10.23;;;10.50;99.90;;;;;;5120030;27;20236;-87
2022/04/25 08:32:06;;;;;;;10.97;10.67;;;10.40;99.90;;;;;;5120423;27;20221;-84
2022/04/25 08:49:42;;;;;;;10.83;10.53;;;10.40;99.90;;;;;;4918264;29;20243;-85
2022/04/25 08:52:11;;;;;;;10.70;10.40;;;10.50;99.90;;;;;;4955139;28;20245;-81
2022/04/25 08:55:00;;;;;;;10.90;10.60;;;10.70;99.90;;;;;;5072951;27;20259;-83
2022/04/25 08:57:45;;;;;;;10.80;10.50;;;10.70;99.90;;;;;;5119488;28;20225;-86
2022/04/25 09:03:13;;;;;;;10.43;10.13;;;10.70;99.90;;;;;;5118704;27;20239;-86
2022/04/25 09:06:01;;;;;;;10.70;10.40;;;10.70;99.90;;;;;;5118867;27;20294;-86
2022/04/25 09:08:32;;;;;;;10.57;10.27;;;10.70;99.90;;;;;;5118685;28;20209;-86
2022/04/25 09:13:53;;;;;;;10.53;10.23;;;11.00;99.90;;;;;;5118173;28;20235;-86
2022/04/25 09:16:23;;;;;;;10.07;9.77;;;11.20;99.90;;;;;;5118082;27;20252;-86
2022/04/25 09:19:01;;;;;;;10.07;9.77;;;11.20;99.90;;;;;;5118240;27;20225;-86
2022/04/25 09:24:33;;;;;;;10.23;9.93;;;11.40;99.90;;;;;;5118306;27;20236;-86
2022/04/25 09:27:24;;;;;;;10.07;9.77;;;11.60;99.90;;;;;;5118055;27;20233;-86
2022/04/25 09:30:22;;;;;;;10.30;10.00;;;11.90;99.90;;;;;;5118183;27;20248;-86
2022/04/25 09:35:37;;;;;;;10.00;9.70;;;12.20;99.90;;;;;;5102403;28;20244;-86
2022/04/25 09:38:13;;;;;;;10.00;9.70;;;12.40;99.90;;;;;;5105062;28;20225;-86
2022/04/25 09:40:41;;;;;;;10.07;9.77;;;12.50;99.90;;;;;;5104514;28;20233;-86
2022/04/25 09:43:19;;;;;;;10.00;9.70;;;12.70;99.90;;;;;;5111242;28;20241;-85
2022/04/25 09:49:01;;;;;;;10.03;9.73;;;13.00;99.90;;;;;;5112812;28;20289;-83
2022/04/25 09:51:31;;;;;;;10.30;10.00;;;13.10;99.90;;;;;;5112619;28;20221;-83
2022/04/25 09:54:01;;;;;;;10.30;10.00;;;13.20;99.90;;;;;;5109885;28;20286;-84
2022/04/25 09:56:40;;;;;;;10.20;9.90;;;13.30;99.90;;;;;;5107880;28;21032;-85
2022/04/25 10:03:19;;;;;;;10.40;10.10;;;13.30;99.90;;;;;;5100132;28;20226;-87
2022/04/25 10:12:21;;;;;;;10.03;9.73;;;14.00;99.90;;;;;;5105088;28;20248;-84
2022/04/25 10:15:01;;;;;;;10.50;10.20;;;14.10;99.90;;;;;;5105428;28;20217;-86
2022/04/25 10:17:39;;;;;;;10.20;9.90;;;14.30;99.90;;;;;;5105346;28;20699;-88
2022/04/25 10:25:40;;;;;;;10.10;9.80;;;14.20;99.90;;;;;;5113072;28;20228;-86
2022/04/25 10:31:26;;;;;;;10.10;9.80;;;13.80;99.90;;;;;;5109433;28;20225;-85
2022/04/25 10:46:16;;;;;;;10.23;9.93;;;13.10;99.90;;;;;;5124103;27;20220;-82
2022/04/25 10:49:06;;;;;;;10.30;10.00;;;13.20;99.90;;;;;;5121884;28;20287;-85
2022/04/25 10:51:43;;;;;;;10.00;9.70;;;13.10;99.90;;;;;;5114409;28;20236;-85
2022/04/25 10:54:14;;;;;;;10.30;10.00;;;13.00;99.90;;;;;;5122609;28;20273;-85
2022/04/25 10:57:16;;;;;;;10.10;9.80;;;13.10;99.90;;;;;;5122128;28;20289;-84
2022/04/25 10:59:47;;;;;;;10.30;10.00;;;13.10;99.90;;;;;;5122437;28;20225;-84
2022/04/25 11:02:26;;;;;;;9.83;9.53;;;13.10;99.90;;;;;;5125090;27;20225;-84
2022/04/25 11:05:33;;;;;;;9.80;9.50;;;13.10;99.90;;;;;;5124700;27;20252;-84
2022/04/25 11:08:35;;;;;;;10.00;9.70;;;13.20;99.90;;;;;;5123069;28;20297;-83
2022/04/25 11:11:20;;;;;;;9.60;9.30;;;13.30;99.90;;;;;;5123636;28;20224;-85
2022/04/25 11:14:21;;;;;;;9.93;9.63;;;13.40;99.90;;;;;;5123458;27;20247;-84
2022/04/25 11:17:14;;;;;;;10.03;9.73;;;13.50;99.90;;;;;;5038685;28;20231;-82
2022/04/25 11:19:51;;;;;;;10.30;10.00;;;13.70;99.90;;;;;;5040542;28;20239;-82
2022/04/25 11:23:34;;;;;;;9.83;9.53;;;13.60;99.90;;;;;;5097348;28;20298;-82
2022/04/25 11:26:04;;;;;;;10.10;9.80;;;13.40;99.90;;;;;;5126016;28;20298;-82
2022/04/25 11:28:34;;;;;;;9.83;9.53;;;13.50;99.90;;;;;;5124880;27;20228;-83
2022/04/25 11:31:22;;;;;;;9.87;9.57;;;13.50;99.90;;;;;;5128388;28;20277;-82
2022/04/25 11:34:00;;;;;;;10.10;9.80;;;13.60;99.90;;;;;;5124565;28;20239;-82
2022/04/25 11:36:29;;;;;;;10.60;10.30;;;13.40;99.90;;;;;;5124222;28;20691;-83
2022/04/25 11:41:45;;;;;;;10.10;9.80;;;13.30;99.90;;;;;;5118762;28;20224;-82
2022/04/25 11:44:13;;;;;;;10.03;9.73;;;13.40;99.90;;;;;;5119883;28;20231;-82
2022/04/25 11:46:41;;;;;;;9.97;9.67;;;13.60;99.90;;;;;;5119640;28;20305;-82
2022/04/25 11:49:11;;;;;;;9.90;9.60;;;13.80;99.90;;;;;;5120401;28;20286;-82
2022/04/25 11:51:44;;;;;;;10.10;9.80;;;13.80;99.90;;;;;;5119138;28;20233;-81
2022/04/25 11:54:13;;;;;;;10.07;9.77;;;14.00;99.90;;;;;;5119227;28;20227;-82
2022/04/25 11:56:42;;;;;;;10.23;9.93;;;14.10;99.90;;;;;;5121144;28;20239;-82
2022/04/25 11:59:17;;;;;;;10.40;10.10;;;14.10;99.90;;;;;;5120915;28;20235;-83
2022/04/25 12:01:48;;;;;;;10.30;10.00;;;14.10;99.90;;;;;;5123164;27;20278;-84
2022/04/25 12:04:20;;;;;;;10.00;9.70;;;14.10;99.90;;;;;;5124833;28;20232;-83
2022/04/25 12:06:52;;;;;;;10.20;9.90;;;14.10;99.90;;;;;;5130258;28;20224;-82
2022/04/25 12:18:21;;;;;;;10.20;9.90;;;14.00;99.90;;;;;;5138916;28;20251;-84
2022/04/25 12:21:01;;;;;;;10.07;9.77;;;13.80;99.90;;;;;;5139208;27;20256;-86
2022/04/25 12:23:31;;;;;;;10.20;9.90;;;13.90;99.90;;;;;;5137094;27;20288;-84
2022/04/25 12:26:05;;;;;;;10.40;10.10;;;13.90;99.90;;;;;;5128878;27;20228;-84
2022/04/25 12:28:37;;;;;;;10.53;10.23;;;13.90;99.90;;;;;;5125252;28;20240;-84
2022/04/25 12:31:09;;;;;;;10.07;9.77;;;13.80;99.90;;;;;;5122187;28;20232;-84
2022/04/25 12:33:40;;;;;;;10.50;10.20;;;13.70;99.90;;;;;;5124467;28;20221;-84
2022/04/25 12:36:14;;;;;;;10.17;9.87;;;13.80;99.90;;;;;;5120313;27;20347;-84
2022/04/25 12:38:46;;;;;;;9.97;9.67;;;13.80;99.90;;;;;;5120767;27;20240;-84
2022/04/25 12:41:24;;;;;;;10.30;10.00;;;13.60;99.90;;;;;;5121517;28;20323;-84
2022/04/25 12:43:53;;;;;;;10.20;9.90;;;13.50;99.90;;;;;;5122653;28;20220;-85
2022/04/25 12:46:41;;;;;;;9.97;9.67;;;13.50;99.90;;;;;;5121706;27;20228;-83
2022/04/25 12:49:12;;;;;;;9.80;9.50;;;13.40;99.90;;;;;;5122566;28;20251;-84
2022/04/25 12:52:00;;;;;;;10.03;9.73;;;13.40;99.90;;;;;;5122963;28;20245;-84
2022/04/25 12:54:31;;;;;;;9.97;9.67;;;13.50;99.90;;;;;;5123075;28;20231;-84
2022/04/25 12:57:13;;;;;;;10.13;9.83;;;13.50;99.90;;;;;;5118854;28;20245;-85
2022/04/25 12:59:42;;;;;;;10.03;9.73;;;13.40;99.90;;;;;;5122949;28;20286;-83
2022/04/25 13:02:14;;;;;;;10.03;9.73;;;13.60;99.90;;;;;;5122302;28;20707;-85
2022/04/25 13:07:46;;;;;;;10.20;9.90;;;13.80;99.90;;;;;;5098736;28;20256;-85
2022/04/25 13:10:18;;;;;;;10.70;10.40;;;13.90;99.90;;;;;;5105446;28;20229;-85
2022/04/25 13:12:50;;;;;;;10.50;10.20;;;13.90;99.90;;;;;;5107296;27;20260;-85
2022/04/25 13:15:22;;;;;;;10.40;10.10;;;14.00;99.90;;;;;;5105621;28;21107;-84
2022/04/25 13:17:52;;;;;;;10.50;10.20;;;14.10;99.90;;;;;;5104149;27;20232;-85
2022/04/25 13:20:22;;;;;;;10.47;10.17;;;14.20;99.90;;;;;;5104766;28;20221;-85
2022/04/25 13:22:56;;;;;;;10.77;10.47;;;14.20;99.90;;;;;;5107838;28;20237;-85
2022/04/25 13:25:30;;;;;;;10.20;9.90;;;14.30;99.90;;;;;;5106676;27;20233;-85
2022/04/25 13:27:59;;;;;;;10.17;9.87;;;14.50;99.90;;;;;;5106833;28;20213;-85
2022/04/25 13:30:27;;;;;;;9.90;9.60;;;14.50;99.90;;;;;;5107180;28;20221;-85
2022/04/25 13:32:56;;;;;;;10.20;9.90;;;14.50;99.90;;;;;;5112178;28;20245;-85
2022/04/25 13:35:29;;;;;;;10.10;9.80;;;14.50;99.90;;;;;;5121207;28;20213;-85
2022/04/25 13:38:00;;;;;;;10.10;9.80;;;14.60;99.90;;;;;;5136370;27;20236;-84
2022/04/25 13:40:28;;;;;;;10.30;10.00;;;14.60;99.90;;;;;;5125776;28;20260;-86
2022/04/25 13:42:56;;;;;;;10.20;9.90;;;14.80;99.90;;;;;;5124951;28;20343;-86
2022/04/25 13:45:25;;;;;;;10.13;9.83;;;14.90;99.90;;;;;;5124305;28;20308;-86
2022/04/25 13:47:54;;;;;;;10.00;9.70;;;14.90;99.90;;;;;;5124901;27;20217;-85
2022/04/25 13:50:23;;;;;;;10.05;9.75;;;14.90;99.90;;;;;;5125322;28;20254;-85
2022/04/25 13:52:53;;;;;;;10.30;10.00;;;14.90;99.90;;;;;;5125076;28;20237;-86
2022/04/25 13:55:25;;;;;;;10.23;9.93;;;14.90;99.90;;;;;;5127184;28;20233;-86
2022/04/25 13:57:53;;;;;;;10.10;9.80;;;15.00;99.90;;;;;;5126273;27;20217;-86
2022/04/25 14:00:21;;;;;;;10.07;9.77;;;14.90;99.90;;;;;;5125130;27;20294;-85
2022/04/25 14:03:11;;;;;;;10.30;10.00;;;14.90;99.90;;;;;;5141365;27;20297;-87
2022/04/25 14:05:50;;;;;;;10.52;10.23;;;15.10;99.90;;;;;;5142862;27;20239;-86
2022/04/25 14:08:18;;;;;;;10.52;10.23;;;15.40;99.90;;;;;;5143270;27;20209;-85
2022/04/25 14:10:49;;;;;;;10.60;10.30;;;15.90;99.90;;;;;;5142772;27;20216;-87
2022/04/25 14:13:18;;;;;;;10.80;10.50;;;16.30;99.90;;;;;;5136039;27;20255;-86
2022/04/25 14:15:46;;;;;;;10.60;10.30;;;16.70;99.90;;;;;;5141900;27;20254;-86
2022/04/25 14:18:22;;;;;;;10.95;10.65;;;17.00;99.90;;;;;;5141324;28;20224;-87
2022/04/25 14:20:51;;;;;;;10.70;10.40;;;17.60;99.90;;;;;;5130664;28;20229;-86
2022/04/25 14:23:22;;;;;;;10.75;10.45;;;17.90;99.90;;;;;;5126504;27;20240;-87
2022/04/25 14:28:38;;;;;;;11.02;10.73;;;18.00;99.90;;;;;;5132277;28;20240;-86
2022/04/25 14:31:07;;;;;;;10.77;10.48;;;18.10;99.90;;;;;;5128879;28;20228;-86
2022/04/25 14:33:36;;;;;;;10.93;10.63;;;18.40;99.90;;;;;;5128920;28;20221;-86
2022/04/25 14:36:16;;;;;;;10.77;10.48;;;18.60;99.90;;;;;;5126611;27;20237;-86
2022/04/25 14:38:44;;;;;;;10.70;10.40;;;18.70;99.90;;;;;;5124721;28;20220;-85
2022/04/25 14:41:22;;;;;;;10.93;10.63;;;18.40;99.90;;;;;;5124009;27;20233;-85
2022/04/25 14:43:53;;;;;;;11.07;10.77;;;18.30;99.90;;;;;;5125641;28;20236;-85
2022/04/25 14:46:21;;;;;;;10.68;10.38;;;18.20;99.90;;;;;;5129165;28;20217;-84
2022/04/25 14:48:51;;;;;;;10.70;10.40;;;17.60;99.90;;;;;;5124272;28;20240;-84
2022/04/25 14:56:47;;;;;;;10.65;10.35;;;17.80;99.90;;;;;;5118934;27;20328;-84
2022/04/25 14:59:15;;;;;;;10.60;10.30;;;17.80;99.90;;;;;;5124099;28;20598;-85
2022/04/25 15:01:47;;;;;;;10.90;10.60;;;17.80;99.90;;;;;;5124148;27;20300;-84
2022/04/25 15:04:19;;;;;;;10.65;10.35;;;17.70;99.90;;;;;;5128015;28;20309;-84
2022/04/25 15:06:49;;;;;;;10.95;10.65;;;17.60;99.90;;;;;;5127072;28;20217;-84
2022/04/25 15:09:18;;;;;;;10.75;10.45;;;17.40;99.90;;;;;;5129642;28;20240;-83
2022/04/25 15:12:05;;;;;;;10.98;10.68;;;17.00;99.90;;;;;;5126578;27;20229;-85
2022/04/25 15:14:33;;;;;;;10.90;10.60;;;16.60;99.90;;;;;;5123651;28;20237;-85
2022/04/25 15:17:01;;;;;;;10.80;10.50;;;16.40;99.90;;;;;;5126162;28;20270;-83